Detall de PIREP

Printer-friendly versionPDF version

[2013/03/14 10:06:00]
Flight IATA:CT2210
Pilot Number:042
Company ICAO:CAT
Aircraft Type:A320/E
PAX:77
Departing Airport: LFMP
Destination Airport: LFPG
Alternate Airport:EHRD
Online: VATSIM
Route:N0350F180 ORBIL G36 GAI/N450F280 UY156 FISTO UY156 PERIG UY156 FOUCO UT181 POI UT182 PEPAX UT182 KEPER
Flight Level:F320
No Slew and time accel
No pause
Crash detect
Detect pilot in Cockpit between each 30 and 45 minutes
10:06 Zero fuel Weight: 143850 Lbs, Fuel Weight: 42156 Lbs
10:06 VATSIM:LFMP 140930Z 32023G35KT 290V350 9999 SCT036 SCT046 05/M04 Q1009
10:06 VATSIM:LFPG 140930Z 33006KT 6000 FEW004 00/M01 Q1014 NOSIG
10:06 VOICE CATALONIAN
10:17 Parking Brakes off
10:20 Take-off
10:20 Take off Weight: 184989 Lbs
10:20 Wind: 002º @ 002 Knots Heading: 329º
10:20 POS N42º 45´ 46´´ E002º 51´ 16´´
10:20 Gear Up: 189 Knots
10:20 Flaps:3 at 189 Knots
10:21 Flaps:2 at 198 Knots
10:21 Flaps:1 at 201 Knots
10:21 Flaps:0 at 223 Knots
10:35 Wind:320º@058 Knots Heading: 326º Ground Speed: 307 Knots Altitude 25255 ft
10:50 Wind:322º@064 Knots Heading: 342º Ground Speed: 399 Knots Altitude 31312 ft
10:51 TOC
10:51 Fuel Weight: 34628 Lb
11:05 Wind:322º@068 Knots Heading: 339º Ground Speed: 379 Knots Altitude 32043 ft
11:20 Wind:323º@071 Knots Heading: 346º Ground Speed: 377 Knots Altitude 32070 ft
11:25 TOD
11:25 Fuel Weight: 30893 Lb
11:26 TOC
11:26 Fuel Weight: 30886 Lb
11:26 TOD
11:26 Fuel Weight: 30885 Lb
11:35 Wind:324º@059 Knots Heading: 046º Ground Speed: 322 Knots Altitude 21666 ft
11:44 Flaps:1 at 194 Knots
11:46 Flaps:3 at 189 Knots
11:50 Wind:158º@005 Knots Heading: 264º Ground Speed: 184 Knots Altitude 3011 ft
11:50 Gear Down: 178 Knots
11:51 Flaps:4 at 169 Knots
11:51 Flaps:5 at 160 Knots
11:53 TouchDown:Rate -216 ft/minSpeed: 137 Knots
11:53 VATSIM:LFPG 141130Z 35011KT 9999 BKN033 03/M05 Q1014 NOSIG
11:54 Land
11:54 Wind:173º@005 Knots
11:54 Heading: 265º
11:54 Flight Duration: 01:34
11:54 Landing Weight: 172339 Lbs
11:54 POS N48º 59´ 37´´ E002º 34´ 46´´
11:58 Parking brakes on
11:58 Block to Block Duration: 01:41
11:58 Final Fuel: 27929 Lbls
11:58 Spent Fuel: 14226 Lbls
11:58 Flight Length: 512 NM
11:58 TOD Land Length: 128 NM

Exportar CSV

Powered by Drupal - Modified by Danger4k